Time;durP1;ratioP1;P1;durP2;ratioP2;P2;SDS_P1;SDS_P2;PMS_P1;PMS_P2;Temp;Humidity;BMP_temperature;BMP_pressure;BME280_temperature;BME280_humidity;BME280_pressure;Samples;Min_cycle;Max_cycle;Signal;HPM_P1;HPM_P2
2022/10/05 00:00:16;;;;;;;0.20;0.20;;;;;;;21.27;29.33;99987.59;4929791;29;20684;-90
2022/10/05 00:02:42;;;;;;;0.20;0.20;;;;;;;21.25;29.17;99995.16;4940086;29;20524;-89
2022/10/05 00:05:18;;;;;;;0.47;0.20;;;;;;;21.16;29.28;100003.88;4948113;28;20118;-89
2022/10/05 00:07:43;;;;;;;0.20;0.20;;;;;;;21.00;29.52;99997.53;4939920;29;20032;-89
2022/10/05 00:10:12;;;;;;;0.20;0.20;;;;;;;20.90;29.66;100010.28;4941391;29;20066;-89
2022/10/05 00:12:38;;;;;;;0.20;0.20;;;;;;;20.79;29.67;100002.09;4959748;28;20098;-89
2022/10/05 00:15:08;;;;;;;0.20;0.20;;;;;;;20.68;29.59;99997.72;4945828;28;20114;-89
2022/10/05 00:17:34;;;;;;;0.25;0.22;;;;;;;20.63;29.94;99997.69;4927729;29;20098;-89
2022/10/05 00:19:59;;;;;;;0.20;0.20;;;;;;;20.57;29.95;100001.41;4942587;29;20540;-88
2022/10/05 00:22:30;;;;;;;0.20;0.20;;;;;;;20.50;29.81;99992.69;4940547;28;20027;-89
2022/10/05 00:24:57;;;;;;;1.98;0.20;;;;;;;20.40;29.85;99980.69;4945511;29;20035;-89
2022/10/05 00:27:31;;;;;;;0.38;0.30;;;;;;;20.35;30.15;99972.53;4943221;29;20059;-89
2022/10/05 00:29:58;;;;;;;0.20;0.20;;;;;;;20.28;29.99;99958.34;4941987;29;20397;-89
2022/10/05 00:32:23;;;;;;;0.55;0.20;;;;;;;20.27;30.08;99945.88;4916075;29;20027;-89
2022/10/05 00:34:49;;;;;;;0.50;0.20;;;;;;;20.23;30.16;99942.03;4944140;29;20038;-89
2022/10/05 00:37:14;;;;;;;0.20;0.20;;;;;;;20.37;30.20;99943.22;4934898;29;20110;-89
2022/10/05 00:39:40;;;;;;;0.20;0.20;;;;;;;20.58;29.81;99938.69;4945684;29;20035;-89
2022/10/05 00:42:24;;;;;;;0.52;0.30;;;;;;;20.95;29.51;99953.25;4928962;29;20063;-89
2022/10/05 00:45:14;;;;;;;1.58;0.30;;;;;;;21.21;29.05;99956.84;4949058;29;20500;-89
2022/10/05 00:47:43;;;;;;;0.20;0.20;;;;;;;21.36;28.82;99954.16;4936152;29;20117;-89
2022/10/05 00:50:26;;;;;;;0.20;0.20;;;;;;;21.37;28.89;99949.56;4936942;29;20032;-89
2022/10/05 00:53:09;;;;;;;0.65;0.20;;;;;;;21.29;28.95;99960.94;4935538;29;20039;-89
2022/10/05 00:56:01;;;;;;;0.30;0.30;;;;;;;21.16;29.05;99970.41;4941548;28;20380;-89
2022/10/05 00:58:48;;;;;;;0.30;0.30;;;;;;;21.04;29.10;99976.13;4937998;29;20046;-89
2022/10/05 01:01:39;;;;;;;2.35;0.20;;;;;;;20.88;29.40;99969.00;4943395;28;20027;-88
2022/10/05 01:04:20;;;;;;;0.30;0.30;;;;;;;20.78;29.53;99970.59;4949959;29;20039;-89
2022/10/05 01:06:53;;;;;;;0.82;0.20;;;;;;;20.71;29.25;99961.84;4944718;29;20049;-91
2022/10/05 01:09:36;;;;;;;0.45;0.20;;;;;;;20.62;29.46;99971.59;4936239;29;20098;-90
2022/10/05 01:12:14;;;;;;;0.20;0.20;;;;;;;20.54;29.27;99975.63;4946031;29;20047;-89
2022/10/05 01:15:04;;;;;;;0.13;0.13;;;;;;;20.47;29.56;99956.00;4947121;28;20039;-90
2022/10/05 01:17:38;;;;;;;0.63;0.38;;;;;;;20.40;29.33;99950.84;4946220;29;20031;-90
2022/10/05 01:20:07;;;;;;;;;;;;;;;20.36;29.48;99962.47;4947519;29;20156;-87
2022/10/05 01:23:17;;;;;;;0.80;0.30;;;;;;;20.29;29.88;99957.28;4935293;29;19952;-89
2022/10/05 01:26:07;;;;;;;1.88;0.30;;;;;;;20.45;29.71;99944.59;4910109;29;20043;-89
2022/10/05 01:28:40;;;;;;;0.38;0.38;;;;;;;20.73;29.17;99954.28;4909957;29;20417;-89
2022/10/05 01:31:12;;;;;;;0.20;0.20;;;;;;;21.10;28.90;99956.00;4933402;29;20065;-89
2022/10/05 01:34:09;;;;;;;0.73;0.25;;;;;;;21.33;28.53;99960.13;4919886;29;20536;-89
2022/10/05 01:36:56;;;;;;;0.22;0.22;;;;;;;21.49;28.48;99958.28;4942525;29;20079;-90
2022/10/05 01:39:59;;;;;;;0.20;0.20;;;;;;;21.48;28.49;99964.81;4948218;29;20027;-90
2022/10/05 01:42:36;;;;;;;0.20;0.20;;;;;;;21.35;28.69;99970.72;4942568;29;20105;-89
2022/10/05 01:45:11;;;;;;;1.55;0.30;;;;;;;21.22;28.78;99974.00;4946989;29;20023;-89
2022/10/05 01:47:48;;;;;;;0.43;0.22;;;;;;;21.08;28.73;99966.34;4944483;28;20099;-89
2022/10/05 01:50:36;;;;;;;0.20;0.20;;;;;;;20.97;29.05;99953.78;4947541;29;20082;-89
2022/10/05 01:53:11;;;;;;;0.30;0.30;;;;;;;20.61;28.84;99908.31;4936653;29;20033;-89
2022/10/05 01:55:42;;;;;;;0.30;0.30;;;;;;;20.76;29.11;99951.00;4955127;28;20031;-89
2022/10/05 01:58:39;;;;;;;0.75;0.40;;;;;;;20.67;29.03;99958.03;4939637;29;20034;-89
2022/10/05 02:01:26;;;;;;;0.20;0.20;;;;;;;20.57;29.33;99952.53;4944441;29;20023;-89
2022/10/05 02:04:00;;;;;;;1.45;0.20;;;;;;;20.49;29.09;99950.31;4943092;29;20115;-89
2022/10/05 02:06:26;;;;;;;0.47;0.47;;;;;;;20.43;29.44;99954.91;4932009;29;20035;-89
2022/10/05 02:09:14;;;;;;;0.20;0.20;;;;;;;20.42;29.27;99954.09;4933640;29;20451;-89
2022/10/05 02:11:40;;;;;;;0.20;0.20;;;;;;;20.60;29.32;99941.16;4943544;28;20047;-89
2022/10/05 02:14:10;;;;;;;0.20;0.20;;;;;;;20.89;29.01;99930.69;4940286;29;20376;-89
2022/10/05 02:16:40;;;;;;;0.28;0.20;;;;;;;21.15;28.62;99931.56;4950799;29;20027;-89
2022/10/05 02:19:24;;;;;;;0.20;0.20;;;;;;;21.34;28.24;99926.44;4944970;28;20032;-89
2022/10/05 02:22:07;;;;;;;0.47;0.30;;;;;;;21.49;28.11;99941.16;4947601;29;20043;-89
2022/10/05 02:24:50;;;;;;;1.08;0.28;;;;;;;21.55;27.98;99946.31;4942630;29;20028;-89
2022/10/05 02:27:21;;;;;;;0.30;0.20;;;;;;;21.47;28.22;99932.44;4944191;28;20023;-89
2022/10/05 02:29:47;;;;;;;0.20;0.20;;;;;;;21.31;28.45;99926.97;4945609;29;20039;-89
2022/10/05 02:32:23;;;;;;;0.30;0.20;;;;;;;21.17;28.47;99937.53;4937991;29;20381;-89
2022/10/05 02:34:49;;;;;;;2.15;0.50;;;;;;;21.04;28.66;99940.81;4931414;29;20042;-89
2022/10/05 02:37:33;;;;;;;0.90;0.25;;;;;;;20.97;28.82;99945.66;4946466;28;20027;-89
2022/10/05 02:40:20;;;;;;;0.30;0.30;;;;;;;20.85;28.68;99940.44;4940776;28;20039;-89
2022/10/05 02:42:51;;;;;;;0.20;0.20;;;;;;;20.74;28.71;99926.03;4941357;28;20023;-89
2022/10/05 02:46:04;;;;;;;0.77;0.30;;;;;;;20.61;29.05;99918.34;4948116;29;20412;-89
2022/10/05 02:48:48;;;;;;;0.20;0.20;;;;;;;20.59;28.71;99928.66;4946457;29;20040;-89
2022/10/05 02:51:20;;;;;;;0.30;0.30;;;;;;;20.49;29.02;99915.03;4944083;29;20028;-89
2022/10/05 02:53:50;;;;;;;0.22;0.20;;;;;;;20.56;28.92;99912.91;4948973;29;20031;-89
2022/10/05 02:56:55;;;;;;;1.48;0.30;;;;;;;20.87;28.85;99918.47;4935420;29;20042;-89
2022/10/05 02:59:22;;;;;;;1.02;0.20;;;;;;;21.18;28.39;99939.19;4939617;29;20031;-89
2022/10/05 03:01:56;;;;;;;1.40;0.20;;;;;;;21.46;28.06;99947.13;4948678;28;20035;-89
2022/10/05 03:04:41;;;;;;;0.30;0.30;;;;;;;21.49;27.90;99920.22;4934986;29;20086;-89
2022/10/05 03:07:16;;;;;;;0.30;0.30;;;;;;;21.54;27.87;99922.94;4933917;29;20090;-89
2022/10/05 03:10:03;;;;;;;0.20;0.20;;;;;;;21.52;27.99;99930.53;4939867;29;20171;-89
2022/10/05 03:12:33;;;;;;;0.57;0.30;;;;;;;21.39;28.17;99926.44;4947970;29;20381;-89
2022/10/05 03:15:51;;;;;;;0.22;0.22;;;;;;;21.24;28.41;99923.69;4940974;29;20071;-89
2022/10/05 03:18:57;;;;;;;0.30;0.30;;;;;;;21.06;28.54;99914.19;4948454;29;20234;-89
2022/10/05 03:21:45;;;;;;;0.98;0.20;;;;;;;20.96;28.58;99917.69;4931705;29;20044;-89
2022/10/05 03:24:28;;;;;;;1.38;0.28;;;;;;;20.86;28.65;99911.41;4936717;29;20527;-89
2022/10/05 03:27:05;;;;;;;0.30;0.30;;;;;;;20.73;28.60;99902.69;4937450;29;20084;-89
2022/10/05 03:29:31;;;;;;;0.63;0.52;;;;;;;20.65;28.60;99900.47;4938916;29;20035;-89
2022/10/05 03:32:03;;;;;;;0.30;0.30;;;;;;;20.60;28.61;99895.81;4940481;29;20496;-90
2022/10/05 03:34:45;;;;;;;0.20;0.20;;;;;;;20.51;28.92;99883.03;4947966;29;20030;-90
2022/10/05 03:37:42;;;;;;;0.35;0.22;;;;;;;20.74;28.85;99890.72;4949531;29;20043;-90
2022/10/05 03:40:21;;;;;;;0.20;0.20;;;;;;;21.03;28.42;99890.25;4935890;29;20030;-90
2022/10/05 03:43:20;;;;;;;0.30;0.30;;;;;;;21.30;28.31;99884.59;4950199;28;20027;-90
2022/10/05 03:46:00;;;;;;;0.22;0.20;;;;;;;21.46;27.83;99884.59;4940354;28;20122;-90
2022/10/05 03:48:38;;;;;;;0.20;0.20;;;;;;;21.59;27.82;99888.69;4946946;29;20023;-90
2022/10/05 03:51:31;;;;;;;0.20;0.20;;;;;;;21.54;27.90;99889.50;4939556;28;20027;-90
2022/10/05 03:54:24;;;;;;;0.88;0.20;;;;;;;21.41;28.01;99885.41;4941882;29;20038;-90
2022/10/05 03:56:51;;;;;;;2.10;0.30;;;;;;;21.25;28.17;99886.47;4941446;29;20071;-90
2022/10/05 03:59:55;;;;;;;0.28;0.20;;;;;;;21.15;28.33;99892.72;4938162;29;20062;-90
2022/10/05 04:02:49;;;;;;;0.30;0.30;;;;;;;21.01;28.50;99884.28;4944482;29;20048;-90
2022/10/05 04:05:20;;;;;;;0.20;0.20;;;;;;;20.88;28.54;99876.66;4934058;29;20091;-90
2022/10/05 04:07:52;;;;;;;1.17;0.30;;;;;;;20.80;28.29;99869.84;4948212;29;20035;-91
2022/10/05 04:10:21;;;;;;;0.20;0.20;;;;;;;20.73;28.57;99870.09;4928150;29;20031;-90
2022/10/05 04:13:25;;;;;;;0.30;0.30;;;;;;;20.60;28.65;99859.72;4948115;29;20086;-90
2022/10/05 04:16:01;;;;;;;0.30;0.30;;;;;;;20.57;28.89;99865.66;4939327;29;20074;-90
2022/10/05 04:18:42;;;;;;;0.30;0.30;;;;;;;20.72;28.72;99863.03;4938596;29;20385;-90
2022/10/05 04:21:23;;;;;;;0.20;0.20;;;;;;;20.97;28.24;99864.16;4935043;29;20035;-90
2022/10/05 04:24:35;;;;;;;1.45;0.35;;;;;;;21.26;28.08;99858.22;4945498;29;20027;-90
2022/10/05 04:27:18;;;;;;;0.30;0.30;;;;;;;21.53;27.79;99866.13;4930071;29;20051;-90
2022/10/05 04:29:57;;;;;;;0.63;0.20;;;;;;;21.61;27.66;99856.59;4937425;29;20127;-90
2022/10/05 04:32:48;;;;;;;0.30;0.30;;;;;;;21.62;27.58;99869.91;4938703;29;20047;-90
2022/10/05 04:35:54;;;;;;;2.85;0.40;;;;;;;21.50;27.83;99862.03;4944031;29;20118;-90
2022/10/05 04:38:50;;;;;;;0.90;0.25;;;;;;;21.32;28.13;99865.28;4946284;29;20027;-90
2022/10/05 04:41:40;;;;;;;0.20;0.20;;;;;;;21.18;28.20;99870.44;4940352;29;20079;-89
2022/10/05 04:44:24;;;;;;;0.40;0.32;;;;;;;21.09;28.28;99872.06;4949290;29;20028;-90
2022/10/05 04:47:21;;;;;;;0.38;0.30;;;;;;;20.95;28.50;99879.91;4949457;28;20047;-90
2022/10/05 04:50:01;;;;;;;0.30;0.30;;;;;;;20.82;28.42;99873.91;4927624;29;20508;-90
2022/10/05 04:53:09;;;;;;;1.30;0.30;;;;;;;20.65;28.59;99865.19;4938433;28;20384;-90
2022/10/05 04:55:52;;;;;;;0.30;0.30;;;;;;;20.65;28.55;99867.09;4938390;29;20038;-90
2022/10/05 04:58:53;;;;;;;0.30;0.30;;;;;;;20.55;28.71;99851.56;4931971;29;20385;-90
2022/10/05 05:01:35;;;;;;;0.40;0.40;;;;;;;20.53;28.87;99865.38;4946284;29;20114;-90
2022/10/05 05:04:32;;;;;;;1.60;0.57;;;;;;;20.72;28.70;99859.50;4938758;29;20059;-90
2022/10/05 05:07:01;;;;;;;0.50;0.50;;;;;;;21.04;28.30;99869.34;4940054;29;20114;-90
2022/10/05 05:09:45;;;;;;;0.77;0.30;;;;;;;21.27;28.13;99868.00;4951612;28;20039;-90
2022/10/05 05:12:32;;;;;;;0.52;0.30;;;;;;;21.55;27.73;99858.50;4944836;28;20079;-91
2022/10/05 05:15:04;;;;;;;0.30;0.30;;;;;;;21.62;27.57;99859.03;4947539;28;20512;-91
2022/10/05 05:17:45;;;;;;;0.30;0.30;;;;;;;21.56;27.61;99866.41;4948033;28;20035;-91
2022/10/05 05:20:21;;;;;;;0.30;0.30;;;;;;;21.46;27.80;99877.28;4932231;29;20055;-90
2022/10/05 05:23:02;;;;;;;0.32;0.32;;;;;;;21.33;27.96;99872.34;4938321;29;20031;-91
2022/10/05 05:25:35;;;;;;;0.75;0.30;;;;;;;21.15;28.11;99866.38;4943188;29;20023;-90
2022/10/05 05:28:11;;;;;;;0.30;0.30;;;;;;;21.03;28.33;99857.66;4949372;29;20511;-91
2022/10/05 05:31:21;;;;;;;1.20;0.40;;;;;;;20.95;28.32;99860.91;4945302;29;20059;-91
2022/10/05 05:33:57;;;;;;;1.40;0.40;;;;;;;20.75;28.57;99834.53;4929436;29;20255;-90
2022/10/05 05:36:29;;;;;;;0.82;0.40;;;;;;;20.74;28.56;99849.19;4940390;29;20061;-91
2022/10/05 05:39:07;;;;;;;0.30;0.30;;;;;;;20.67;28.36;99854.88;4934164;28;20024;-91
2022/10/05 05:41:45;;;;;;;0.30;0.30;;;;;;;20.61;28.48;99866.75;4939816;29;20051;-91
2022/10/05 05:44:28;;;;;;;0.32;0.32;;;;;;;20.54;28.68;99871.63;4934131;29;20086;-90
2022/10/05 05:47:31;;;;;;;0.30;0.30;;;;;;;20.63;28.66;99865.44;4947057;28;20037;-90
2022/10/05 05:50:42;;;;;;;0.40;0.30;;;;;;;20.93;28.40;99876.66;4943344;28;20074;-90
2022/10/05 05:53:40;;;;;;;0.55;0.30;;;;;;;21.28;27.84;99894.09;4898742;29;20473;-91
2022/10/05 05:56:39;;;;;;;0.65;0.50;;;;;;;21.51;27.73;99896.31;4878805;29;20035;-90
2022/10/05 05:59:14;;;;;;;0.40;0.30;;;;;;;21.56;27.59;99871.84;4873234;29;20720;-90
2022/10/05 06:01:51;;;;;;;0.98;0.40;;;;;;;21.58;27.42;99857.97;4934773;29;20108;-90
2022/10/05 06:04:28;;;;;;;0.45;0.30;;;;;;;21.43;27.78;99838.91;4945289;29;20038;-91
2022/10/05 06:06:54;;;;;;;0.30;0.30;;;;;;;21.34;27.81;99846.81;4942117;29;20035;-90
2022/10/05 06:09:34;;;;;;;0.57;0.40;;;;;;;21.16;28.21;99840.00;4936971;29;20036;-90
2022/10/05 06:12:04;;;;;;;0.30;0.30;;;;;;;21.10;28.14;99839.19;4929261;29;20396;-91
2022/10/05 06:14:36;;;;;;;0.40;0.40;;;;;;;21.01;28.33;99829.97;4925623;29;20042;-91
2022/10/05 06:17:15;;;;;;;0.75;0.40;;;;;;;20.90;28.34;99833.72;4943797;29;20031;-91
2022/10/05 06:19:41;;;;;;;1.88;0.30;;;;;;;20.80;28.54;99829.94;4951437;28;20039;-90
2022/10/05 06:22:32;;;;;;;0.40;0.40;;;;;;;20.75;28.41;99834.53;4940612;29;20028;-91
2022/10/05 06:25:38;;;;;;;1.02;0.40;;;;;;;20.65;28.53;99845.38;4955308;28;20032;-90
2022/10/05 06:28:11;;;;;;;0.40;0.40;;;;;;;20.55;28.75;99851.56;4948881;28;20687;-91
2022/10/05 06:30:59;;;;;;;1.17;0.30;;;;;;;20.44;28.71;99845.28;4947817;28;20033;-91
2022/10/05 06:33:52;;;;;;;0.30;0.30;;;;;;;20.71;28.59;99858.66;4939661;29;20057;-91
2022/10/05 06:36:23;;;;;;;0.70;0.40;;;;;;;20.93;28.43;99863.88;4937480;29;20040;-91
2022/10/05 06:39:14;;;;;;;0.73;0.43;;;;;;;21.24;28.01;99865.81;4949100;29;20074;-91
2022/10/05 06:41:58;;;;;;;1.45;0.50;;;;;;;21.52;27.65;99865.28;4938683;28;20501;-91
2022/10/05 06:44:29;;;;;;;;;;;;;;;21.63;27.64;99865.28;4942209;29;20477;-89
2022/10/05 06:46:58;;;;;;;0.50;0.35;;;;;;;21.61;27.60;99865.59;4941136;29;19922;-92
2022/10/05 06:49:24;;;;;;;0.22;0.22;;;;;;;21.47;27.80;99865.31;4937832;28;20480;-91
2022/10/05 06:52:22;;;;;;;0.50;0.40;;;;;;;21.36;27.91;99866.38;4940777;29;20039;-91
2022/10/05 06:55:01;;;;;;;0.52;0.40;;;;;;;21.17;28.01;99869.63;4945708;29;20488;-91
2022/10/05 06:57:41;;;;;;;1.13;0.40;;;;;;;21.09;28.22;99867.44;4947898;28;20076;-91
2022/10/05 07:00:24;;;;;;;0.30;0.30;;;;;;;20.98;28.39;99865.81;4944212;28;20500;-91
2022/10/05 07:03:48;;;;;;;1.27;0.77;;;;;;;20.84;28.31;99862.00;4951127;28;20039;-91
2022/10/05 07:06:29;;;;;;;2.17;0.55;;;;;;;20.75;28.48;99867.13;4902468;29;20044;-91
2022/10/05 07:09:48;;;;;;;1.60;0.40;;;;;;;20.60;28.41;99865.94;4944765;29;20047;-91
2022/10/05 07:12:23;;;;;;;2.03;0.45;;;;;;;20.56;28.46;99869.47;4906194;29;20608;-91
2022/10/05 07:15:00;;;;;;;0.85;0.50;;;;;;;20.50;28.75;99875.97;4937243;29;20040;-91
2022/10/05 07:17:28;;;;;;;1.40;0.40;;;;;;;20.50;28.85;99874.06;4939148;28;20039;-92
2022/10/05 07:20:09;;;;;;;0.60;0.50;;;;;;;20.71;28.52;99877.69;4948413;28;20023;-91
2022/10/05 07:23:26;;;;;;;0.98;0.50;;;;;;;21.05;28.15;99885.38;4934912;29;20488;-91
2022/10/05 07:26:08;;;;;;;2.92;0.40;;;;;;;21.32;27.92;99881.59;4924670;29;20039;-91
2022/10/05 07:29:05;;;;;;;1.95;0.60;;;;;;;21.53;27.71;99893.31;4933221;29;20027;-91
2022/10/05 07:31:41;;;;;;;0.70;0.40;;;;;;;21.51;27.70;99885.44;4936333;29;20036;-91
2022/10/05 07:34:14;;;;;;;1.48;0.50;;;;;;;21.48;27.83;99891.41;4940793;29;20027;-91
2022/10/05 07:39:59;;;;;;;0.30;0.30;;;;;;;21.18;28.22;99876.69;4941250;28;20058;-91
2022/10/05 07:42:39;;;;;;;0.63;0.35;;;;;;;21.02;28.33;99864.16;4942727;28;20039;-91
2022/10/05 07:45:32;;;;;;;0.35;0.35;;;;;;;20.87;28.46;99848.69;4942841;29;20043;-91
2022/10/05 07:48:25;;;;;;;0.40;0.40;;;;;;;20.86;28.46;99859.81;4944445;29;20027;-91
2022/10/05 07:51:09;;;;;;;0.35;0.35;;;;;;;20.74;28.78;99863.56;4947362;29;20058;-91
2022/10/05 07:53:39;;;;;;;0.38;0.38;;;;;;;20.64;28.65;99855.41;4943063;28;20082;-92
2022/10/05 07:56:34;;;;;;;0.40;0.40;;;;;;;20.59;28.62;99863.50;4957371;28;20046;-91
2022/10/05 07:59:06;;;;;;;0.40;0.40;;;;;;;20.45;28.74;99842.31;4945773;29;20034;-91
2022/10/05 08:01:36;;;;;;;1.00;0.40;;;;;;;20.48;28.88;99853.72;4936468;29;20055;-91
2022/10/05 08:04:26;;;;;;;2.05;0.50;;;;;;;20.39;28.99;99856.13;4931290;29;20028;-91
2022/10/05 08:06:53;;;;;;;0.43;0.43;;;;;;;20.40;29.11;99860.44;4928187;29;20062;-91
2022/10/05 08:09:40;;;;;;;0.75;0.40;;;;;;;20.60;28.92;99865.16;4934044;28;20020;-91
2022/10/05 08:12:30;;;;;;;0.98;0.40;;;;;;;20.88;28.54;99855.72;4928564;29;20062;-91
2022/10/05 08:15:15;;;;;;;0.80;0.40;;;;;;;21.16;28.20;99838.13;4950719;29;20044;-91
2022/10/05 08:17:52;;;;;;;0.35;0.35;;;;;;;21.36;28.22;99831.03;4947061;29;20127;-91
2022/10/05 08:20:41;;;;;;;0.40;0.40;;;;;;;21.44;28.01;99819.63;4945264;29;20054;-91
2022/10/05 08:23:24;;;;;;;0.55;0.43;;;;;;;21.36;28.17;99828.31;4940978;29;20267;-91
2022/10/05 08:26:01;;;;;;;0.43;0.40;;;;;;;21.22;28.20;99821.81;4941782;29;20505;-91
2022/10/05 08:28:34;;;;;;;0.40;0.40;;;;;;;21.10;28.51;99841.09;4936979;29;20110;-91
2022/10/05 08:31:23;;;;;;;0.88;0.40;;;;;;;20.98;28.80;99833.22;4933476;29;20034;-91
2022/10/05 08:34:19;;;;;;;0.50;0.50;;;;;;;20.88;28.63;99835.91;4923197;29;20043;-91
2022/10/05 08:37:16;;;;;;;0.40;0.40;;;;;;;20.76;28.74;99822.56;4939989;29;20082;-91
2022/10/05 08:39:57;;;;;;;0.30;0.30;;;;;;;20.65;28.91;99802.75;4948905;29;20031;-91
2022/10/05 08:42:29;;;;;;;0.30;0.30;;;;;;;20.54;28.83;99806.47;4939651;29;20028;-92
2022/10/05 08:45:05;;;;;;;0.50;0.50;;;;;;;20.49;28.92;99779.31;4935797;28;20027;-91
2022/10/05 08:48:00;;;;;;;0.80;0.40;;;;;;;20.42;29.06;99774.16;4944467;29;20508;-91
2022/10/05 08:50:51;;;;;;;0.30;0.30;;;;;;;20.33;29.12;99763.00;4954118;28;20023;-91
2022/10/05 08:53:52;;;;;;;0.50;0.50;;;;;;;20.31;29.18;99777.94;4947682;29;20036;-91
2022/10/05 08:56:33;;;;;;;1.05;0.40;;;;;;;20.27;29.44;99785.78;4945190;29;20049;-91
2022/10/05 08:59:26;;;;;;;0.77;0.40;;;;;;;20.42;29.26;99783.13;4939915;29;20037;-91
2022/10/05 09:02:13;;;;;;;0.35;0.32;;;;;;;20.71;28.94;99790.00;4944213;29;20106;-91
2022/10/05 09:05:18;;;;;;;0.40;0.40;;;;;;;21.05;28.52;99786.75;4934165;29;20102;-91
2022/10/05 09:07:56;;;;;;;0.30;0.30;;;;;;;21.33;28.19;99788.91;4926143;29;20067;-92
2022/10/05 09:10:40;;;;;;;0.63;0.45;;;;;;;21.44;28.02;99787.00;4940933;29;20102;-91
2022/10/05 09:13:41;;;;;;;0.40;0.40;;;;;;;21.43;28.04;99788.06;4940270;28;20039;-92
2022/10/05 09:16:42;;;;;;;0.35;0.32;;;;;;;21.30;28.19;99775.03;4937848;29;20019;-91
2022/10/05 09:19:34;;;;;;;0.32;0.30;;;;;;;21.16;28.30;99781.06;4942980;29;20046;-92
2022/10/05 09:22:14;;;;;;;0.40;0.40;;;;;;;20.91;28.61;99762.84;4937325;28;20535;-91
2022/10/05 09:25:21;;;;;;;0.30;0.30;;;;;;;20.88;28.70;99776.16;4941169;29;20507;-91
2022/10/05 09:28:29;;;;;;;0.30;0.30;;;;;;;20.75;28.72;99767.47;4943074;28;20400;-92
2022/10/05 09:31:05;;;;;;;0.35;0.35;;;;;;;20.60;28.89;99761.97;4934544;29;20075;-92
2022/10/05 09:34:06;;;;;;;0.30;0.30;;;;;;;20.55;28.91;99759.25;4942042;29;20027;-92
2022/10/05 09:36:47;;;;;;;0.57;0.40;;;;;;;20.47;29.09;99748.94;4924293;28;20071;-92
2022/10/05 09:39:24;;;;;;;0.30;0.25;;;;;;;20.38;29.08;99744.03;4937216;29;20080;-92
2022/10/05 09:42:21;;;;;;;0.40;0.40;;;;;;;20.32;29.27;99747.81;4935729;29;20034;-93
2022/10/05 09:45:05;;;;;;;0.30;0.30;;;;;;;20.44;29.23;99748.38;4938594;29;20476;-92
2022/10/05 09:48:20;;;;;;;0.30;0.30;;;;;;;20.75;28.95;99753.88;4934561;29;20043;-92
2022/10/05 09:51:07;;;;;;;0.30;0.30;;;;;;;21.12;28.38;99747.34;4937540;29;20040;-93
2022/10/05 09:54:20;;;;;;;0.32;0.32;;;;;;;21.42;28.00;99748.41;4942124;29;20169;-92
2022/10/05 09:57:02;;;;;;;0.28;0.28;;;;;;;21.51;27.96;99741.34;4921581;29;20051;-92
2022/10/05 09:59:46;;;;;;;0.65;0.43;;;;;;;21.52;28.04;99745.66;4941734;29;20512;-92
2022/10/05 10:02:30;;;;;;;1.35;0.40;;;;;;;21.41;28.17;99744.06;4954516;28;20319;-92
2022/10/05 10:05:21;;;;;;;0.40;0.40;;;;;;;21.24;28.32;99743.53;4940452;29;20098;-92
2022/10/05 10:08:03;;;;;;;0.30;0.30;;;;;;;21.10;28.48;99751.44;4939389;28;20036;-93
2022/10/05 10:10:29;;;;;;;0.40;0.40;;;;;;;20.97;28.58;99760.94;4937477;28;20035;-91
2022/10/05 10:13:27;;;;;;;0.60;0.50;;;;;;;20.85;28.79;99749.53;4939159;28;20507;-92
2022/10/05 10:16:02;;;;;;;0.30;0.30;;;;;;;20.73;28.81;99744.38;4937491;28;20567;-93
2022/10/05 10:18:57;;;;;;;0.30;0.30;;;;;;;20.57;29.16;99724.50;4942096;29;20528;-92
2022/10/05 10:21:52;;;;;;;0.30;0.30;;;;;;;20.52;29.14;99727.22;4940006;29;20031;-92
2022/10/05 10:24:47;;;;;;;0.30;0.30;;;;;;;20.43;29.16;99746.75;4939311;29;20074;-93
2022/10/05 10:27:34;;;;;;;1.85;0.47;;;;;;;20.34;29.25;99736.72;4924353;29;20047;-92
2022/10/05 10:30:07;;;;;;;0.93;0.50;;;;;;;20.32;29.36;99736.16;4943834;29;20038;-92
2022/10/05 10:33:12;;;;;;;0.40;0.40;;;;;;;20.47;29.27;99736.16;4938316;28;20035;-92
2022/10/05 10:36:22;;;;;;;0.80;0.40;;;;;;;20.81;28.83;99724.81;4945310;29;20278;-92
2022/10/05 10:39:02;;;;;;;0.40;0.38;;;;;;;21.17;28.50;99725.59;4940420;29;20051;-92
2022/10/05 10:41:48;;;;;;;0.40;0.40;;;;;;;21.37;28.30;99723.97;4942963;29;20334;-93
2022/10/05 10:44:49;;;;;;;0.32;0.32;;;;;;;21.49;28.00;99712.78;4944335;29;20035;-92
2022/10/05 10:47:42;;;;;;;0.57;0.50;;;;;;;21.47;28.22;99710.38;4903180;29;20060;-92
2022/10/05 10:50:27;;;;;;;0.43;0.40;;;;;;;21.29;28.32;99706.28;4943162;28;20044;-94
2022/10/05 10:53:04;;;;;;;0.38;0.38;;;;;;;21.17;28.40;99700.34;4944312;29;20033;-93
2022/10/05 10:55:37;;;;;;;0.40;0.40;;;;;;;20.95;28.73;99687.06;4947802;29;20516;-93
2022/10/05 10:58:28;;;;;;;0.52;0.40;;;;;;;20.89;28.77;99697.13;4931095;29;20074;-93
2022/10/05 11:01:24;;;;;;;1.45;0.40;;;;;;;20.77;29.01;99710.19;4944546;29;20032;-93
2022/10/05 11:03:56;;;;;;;0.30;0.30;;;;;;;20.62;29.11;99700.91;4940541;29;20031;-93
2022/10/05 11:06:55;;;;;;;0.50;0.50;;;;;;;20.56;29.41;99695.75;4947770;29;20488;-93
2022/10/05 11:09:36;;;;;;;0.38;0.38;;;;;;;20.41;29.29;99700.06;4944345;29;20112;-93
2022/10/05 11:12:12;;;;;;;0.30;0.30;;;;;;;20.37;29.33;99704.41;4941847;29;20055;-93
2022/10/05 11:14:56;;;;;;;0.43;0.40;;;;;;;20.30;29.59;99698.44;4939398;29;20019;-93
2022/10/05 11:17:59;;;;;;;0.40;0.40;;;;;;;20.26;29.52;99709.03;4941612;29;20058;-94
2022/10/05 11:20:57;;;;;;;0.30;0.30;;;;;;;20.46;29.29;99701.97;4939118;29;20023;-93
2022/10/05 11:24:00;;;;;;;0.30;0.30;;;;;;;20.80;28.98;99718.59;4942080;29;20031;-93
2022/10/05 11:26:55;;;;;;;0.40;0.40;;;;;;;21.14;28.60;99707.13;4942427;29;20122;-93
2022/10/05 11:29:40;;;;;;;0.30;0.30;;;;;;;21.36;28.46;99703.28;4940251;29;20067;-93
2022/10/05 11:32:24;;;;;;;0.40;0.40;;;;;;;21.41;28.45;99705.19;4944399;29;20106;-93
2022/10/05 11:35:14;;;;;;;0.50;0.50;;;;;;;21.29;28.42;99697.34;4943185;29;20035;-93
2022/10/05 11:38:07;;;;;;;0.50;0.50;;;;;;;21.18;28.71;99713.66;4949600;29;20038;-92
2022/10/05 11:41:10;;;;;;;0.40;0.40;;;;;;;21.02;28.88;99703.91;4950831;29;20354;-93
2022/10/05 11:44:12;;;;;;;0.73;0.40;;;;;;;20.91;28.98;99700.38;4943931;29;20034;-92
2022/10/05 11:47:07;;;;;;;0.40;0.40;;;;;;;20.73;29.20;99712.63;4941326;29;20480;-92
2022/10/05 11:50:04;;;;;;;0.40;0.40;;;;;;;20.63;29.32;99702.56;4941211;29;20031;-93
2022/10/05 11:52:56;;;;;;;0.20;0.20;;;;;;;20.52;29.41;99706.31;4949564;29;20043;-93
2022/10/05 11:56:00;;;;;;;0.30;0.30;;;;;;;20.45;29.43;99700.34;4941950;29;20070;-92
2022/10/05 11:58:28;;;;;;;0.43;0.30;;;;;;;20.35;29.67;99716.59;4935925;29;20031;-93
2022/10/05 12:01:00;;;;;;;0.63;0.40;;;;;;;20.29;29.73;99710.38;4937710;29;20500;-93
2022/10/05 12:03:41;;;;;;;0.40;0.40;;;;;;;20.24;29.91;99718.50;4943654;29;20114;-93
2022/10/05 12:06:28;;;;;;;0.70;0.40;;;;;;;20.24;29.74;99707.66;4940061;29;20404;-92
2022/10/05 12:09:21;;;;;;;0.50;0.50;;;;;;;20.39;29.68;99715.00;4948891;29;20168;-92
2022/10/05 12:12:07;;;;;;;0.40;0.40;;;;;;;20.72;29.10;99716.41;4945453;29;20039;-93
2022/10/05 12:14:53;;;;;;;0.35;0.35;;;;;;;20.95;29.01;99711.50;4934792;29;20038;-93
2022/10/05 12:17:52;;;;;;;0.57;0.50;;;;;;;21.11;28.69;99696.84;4955528;28;20035;-92
2022/10/05 12:20:32;;;;;;;0.60;0.38;;;;;;;21.20;28.79;99705.25;4929807;29;20560;-93
2022/10/05 12:23:12;;;;;;;0.60;0.30;;;;;;;21.10;28.88;99705.25;4935054;29;20042;-93
2022/10/05 12:25:43;;;;;;;0.30;0.30;;;;;;;20.95;29.11;99700.66;4941383;29;20031;-94
2022/10/05 12:28:11;;;;;;;0.30;0.30;;;;;;;20.84;29.24;99702.56;4937133;29;20024;-93
2022/10/05 12:31:04;;;;;;;0.32;0.32;;;;;;;20.74;29.45;99703.38;4927564;29;20112;-93
2022/10/05 12:33:36;;;;;;;0.40;0.40;;;;;;;20.61;29.45;99693.84;4939430;29;20054;-93
2022/10/05 12:36:09;;;;;;;0.30;0.30;;;;;;;20.55;29.63;99686.78;4941789;29;20067;-94
2022/10/05 12:38:58;;;;;;;0.52;0.50;;;;;;;20.48;29.68;99685.44;4925245;29;20034;-93
2022/10/05 12:41:38;;;;;;;0.30;0.30;;;;;;;20.35;29.85;99684.88;4933383;28;20365;-94
2022/10/05 12:44:28;;;;;;;0.38;0.38;;;;;;;20.31;30.01;99677.53;4942458;29;20038;-93
2022/10/05 12:47:10;;;;;;;0.40;0.40;;;;;;;20.28;29.92;99684.31;4941951;28;20039;-94
2022/10/05 12:50:03;;;;;;;0.40;0.40;;;;;;;20.18;30.14;99676.16;4945343;29;20028;-95
2022/10/05 12:52:54;;;;;;;0.65;0.40;;;;;;;20.15;30.20;99680.22;4937864;29;20099;-93
2022/10/05 12:55:46;;;;;;;0.50;0.50;;;;;;;20.11;30.09;99672.88;4954342;28;20038;-93